createdAt,value
2023-04-20T00:03:41.294Z,3.88
2023-04-20T00:08:45.075Z,3.94
2023-04-20T00:13:48.217Z,3.70
2023-04-20T00:18:52.758Z,3.88
2023-04-20T00:23:55.931Z,3.65
2023-04-20T00:28:59.134Z,3.63
2023-04-20T00:34:04.305Z,3.64
2023-04-20T00:39:07.517Z,3.37
2023-04-20T00:44:14.033Z,3.26
2023-04-20T00:49:19.198Z,3.13
2023-04-20T00:54:24.615Z,3.03
2023-04-20T00:59:28.148Z,3.09
2023-04-20T01:04:32.910Z,2.99
2023-04-20T01:09:38.952Z,3.07
2023-04-20T01:14:43.925Z,2.99
2023-04-20T01:19:49.288Z,2.84
2023-04-20T01:24:54.248Z,2.84
2023-04-20T01:29:57.593Z,2.88
2023-04-20T01:35:00.894Z,2.75
2023-04-20T01:40:06.818Z,2.75
2023-04-20T01:45:10.961Z,2.61
2023-04-20T01:50:14.265Z,2.28
2023-04-20T01:55:20.146Z,2.34
2023-04-20T02:00:23.814Z,2.49
2023-04-20T02:05:27.198Z,2.40
2023-04-20T02:10:32.839Z,2.49
2023-04-20T02:15:36.034Z,2.44
2023-04-20T02:20:40.202Z,2.44
2023-04-20T02:25:44.938Z,2.41
2023-04-20T02:30:48.578Z,2.65
2023-04-20T02:35:51.714Z,2.62
2023-04-20T02:40:56.322Z,2.57
2023-04-20T02:46:00.103Z,2.62
2023-04-20T02:51:03.567Z,2.52
2023-04-20T02:56:16.524Z,2.55
2023-04-20T03:01:23.748Z,2.58
2023-04-20T03:06:38.630Z,2.49
2023-04-20T03:11:44.638Z,2.50
2023-04-20T03:16:55.523Z,2.36
2023-04-20T03:21:58.861Z,2.60
2023-04-20T03:27:04.233Z,2.82
2023-04-20T03:32:15.363Z,2.84
2023-04-20T03:37:18.877Z,2.75
2023-04-20T03:42:25.314Z,2.82
2023-04-20T03:47:28.452Z,2.68
2023-04-20T03:52:31.914Z,2.43
2023-04-20T03:57:40.809Z,2.21
2023-04-20T04:02:44.914Z,2.38
2023-04-20T04:07:49.617Z,2.73
2023-04-20T04:12:55.006Z,2.84
2023-04-20T04:17:59.314Z,2.82
2023-04-20T04:23:03.883Z,2.59
2023-04-20T04:28:16.970Z,2.89
2023-04-20T04:33:29.966Z,2.92
2023-04-20T04:38:34.622Z,2.97
2023-04-20T04:43:39.639Z,2.92
2023-04-20T04:48:56.579Z,3.02
2023-04-20T04:54:00.989Z,3.13
2023-04-20T04:59:05.687Z,3.20
2023-04-20T05:04:09.250Z,3.14
2023-04-20T05:09:12.910Z,3.19
2023-04-20T05:14:17.445Z,2.89
2023-04-20T05:19:20.703Z,3.21
2023-04-20T05:24:23.990Z,3.37
2023-04-20T05:29:28.438Z,3.41
2023-04-20T05:34:32.686Z,3.41
2023-04-20T05:39:36.103Z,3.50
2023-04-20T05:44:41.257Z,3.68
2023-04-20T05:49:46.125Z,3.75
2023-04-20T05:54:49.825Z,3.61
2023-04-20T05:59:56.011Z,3.66
2023-04-20T06:05:01.082Z,3.40
2023-04-20T06:10:05.489Z,3.60
2023-04-20T06:15:11.468Z,3.32
2023-04-20T06:20:14.697Z,3.70
2023-04-20T06:25:17.965Z,3.62
2023-04-20T06:30:22.755Z,3.85
2023-04-20T06:35:26.535Z,3.95
2023-04-20T06:40:30.597Z,4.01
2023-04-20T06:45:35.285Z,3.82
2023-04-20T06:50:38.496Z,3.87
2023-04-20T06:55:41.853Z,4.12
2023-04-20T07:00:47.702Z,4.04
2023-04-20T07:05:51.134Z,4.24
2023-04-20T07:10:54.371Z,4.95
2023-04-20T07:15:59.533Z,4.92
2023-04-20T07:21:02.819Z,4.73
2023-04-20T07:26:06.257Z,6.03
2023-04-20T07:31:10.987Z,7.47
2023-04-20T07:36:14.335Z,6.76
2023-04-20T07:41:17.738Z,5.33
2023-04-20T07:46:23.274Z,5.81
2023-04-20T07:51:26.684Z,5.48
2023-04-20T07:56:29.959Z,5.67
2023-04-20T08:01:34.991Z,5.35
2023-04-20T08:06:38.262Z,5.70
2023-04-20T08:11:41.808Z,5.42
2023-04-20T08:16:46.602Z,5.53
2023-04-20T08:21:50.017Z,5.58
2023-04-20T08:26:53.278Z,5.76
2023-04-20T08:31:57.968Z,5.85
2023-04-20T08:37:01.623Z,5.90
2023-04-20T08:42:05.018Z,6.63
2023-04-20T08:47:11.185Z,6.35
2023-04-20T08:52:14.432Z,6.64
2023-04-20T08:57:17.995Z,7.29
2023-04-20T09:02:23.349Z,7.17
2023-04-20T09:07:26.884Z,6.98
2023-04-20T09:12:30.200Z,6.86
2023-04-20T09:17:37.127Z,7.24
2023-04-20T09:22:43.386Z,7.28
2023-04-20T09:27:56.986Z,8.91
2023-04-20T09:33:05.432Z,8.36
2023-04-20T09:38:08.888Z,8.60
2023-04-20T09:43:20.146Z,8.90
2023-04-20T09:48:25.870Z,8.73
2023-04-20T09:53:29.527Z,8.68
2023-04-20T09:58:34.768Z,8.44
2023-04-20T10:03:42.943Z,9.64
2023-04-20T10:08:46.234Z,9.01
2023-04-20T10:13:49.352Z,8.71
2023-04-20T10:19:06.291Z,8.78
2023-04-20T10:24:10.998Z,9.10
2023-04-20T10:29:25.526Z,8.30
2023-04-20T10:34:34.055Z,7.86
2023-04-20T10:39:38.116Z,8.23
2023-04-20T10:44:48.940Z,8.56
2023-04-20T10:49:53.529Z,8.44
2023-04-20T10:54:56.789Z,7.66
2023-04-20T11:00:00.002Z,7.77
2023-04-20T11:05:13.574Z,7.59
2023-04-20T11:10:17.154Z,7.55
2023-04-20T11:15:20.407Z,7.55
2023-04-20T11:20:25.110Z,7.62
2023-04-20T11:25:28.404Z,7.40
2023-04-20T11:30:39.702Z,7.39
2023-04-20T11:35:45.482Z,7.58
2023-04-20T11:40:48.571Z,7.55
2023-04-20T11:45:51.960Z,7.63
2023-04-20T11:50:56.546Z,7.69
2023-04-20T11:55:59.784Z,7.69
2023-04-20T12:01:03.029Z,7.51
2023-04-20T12:06:07.806Z,7.51
2023-04-20T12:11:11.126Z,7.60
2023-04-20T12:16:14.398Z,7.38
2023-04-20T12:21:19.475Z,7.61
2023-04-20T12:26:31.994Z,7.56
2023-04-20T12:31:40.562Z,7.56
2023-04-20T12:36:45.224Z,7.59
2023-04-20T12:41:48.699Z,7.34
2023-04-20T12:46:51.839Z,7.34
2023-04-20T12:51:56.536Z,7.42
2023-04-20T12:56:59.810Z,7.40
2023-04-20T13:02:03.842Z,7.50
2023-04-20T13:07:08.501Z,7.52
2023-04-20T13:12:11.600Z,7.44
2023-04-20T13:17:14.778Z,7.30
2023-04-20T13:22:19.447Z,7.00
2023-04-20T13:27:22.704Z,7.12
2023-04-20T13:32:26.048Z,7.08
2023-04-20T13:37:33.131Z,7.01
2023-04-20T13:42:36.707Z,7.18
2023-04-20T13:47:40.826Z,7.25
2023-04-20T13:52:45.473Z,7.10
2023-04-20T13:57:48.809Z,7.19
2023-04-20T14:02:52.591Z,7.14
2023-04-20T14:08:01.494Z,7.12
2023-04-20T14:13:04.987Z,6.98
2023-04-20T14:18:08.611Z,7.38
2023-04-20T14:23:13.220Z,7.44
2023-04-20T14:28:17.847Z,7.34
2023-04-20T14:33:21.034Z,7.40
2023-04-20T14:38:25.925Z,7.32
2023-04-20T14:43:31.320Z,7.34
2023-04-20T14:48:35.702Z,7.33
2023-04-20T14:53:40.560Z,7.34
2023-04-20T14:58:43.737Z,7.43
2023-04-20T15:03:47.332Z,7.51
2023-04-20T15:08:54.324Z,7.64
2023-04-20T15:13:57.585Z,7.42
2023-04-20T15:19:00.777Z,7.39
2023-04-20T15:24:06.370Z,7.34
2023-04-20T15:29:09.600Z,7.41
2023-04-20T15:34:15.537Z,7.38
2023-04-20T15:39:20.235Z,7.46
2023-04-20T15:44:23.428Z,7.61
2023-04-20T15:49:26.690Z,7.56
2023-04-20T15:54:31.464Z,7.43
2023-04-20T15:59:35.009Z,7.39
2023-04-20T16:04:38.428Z,7.42
2023-04-20T16:09:43.377Z,7.42
2023-04-20T16:14:47.181Z,7.28
2023-04-20T16:19:50.634Z,7.29
2023-04-20T16:24:55.324Z,7.26
2023-04-20T16:29:58.871Z,7.24
2023-04-20T16:35:02.183Z,7.06
2023-04-20T16:40:09.331Z,7.02
2023-04-20T16:45:12.930Z,7.01
2023-04-20T16:50:19.865Z,7.16
2023-04-20T16:55:27.044Z,7.00
2023-04-20T17:00:32.064Z,6.88
2023-04-20T17:05:40.336Z,6.81
2023-04-20T17:10:47.225Z,6.87
2023-04-20T17:15:50.435Z,6.95
2023-04-20T17:20:54.716Z,6.77
2023-04-20T17:25:59.193Z,6.83
2023-04-20T17:31:02.383Z,6.91
2023-04-20T17:36:06.232Z,6.77
2023-04-20T17:41:10.968Z,6.96
2023-04-20T17:46:14.832Z,6.90
2023-04-20T17:51:18.565Z,6.87
2023-04-20T17:56:25.636Z,6.91
2023-04-20T18:01:29.100Z,6.76
2023-04-20T18:06:33.728Z,6.67
2023-04-20T18:11:39.065Z,6.68
2023-04-20T18:16:42.368Z,6.87
2023-04-20T18:21:46.192Z,7.03
2023-04-20T18:26:50.909Z,7.00
2023-04-20T18:31:56.173Z,6.98
2023-04-20T18:37:00.115Z,7.28
2023-04-20T18:42:04.918Z,7.10
2023-04-20T18:47:08.490Z,7.23
2023-04-20T18:52:12.608Z,7.34
2023-04-20T18:57:18.031Z,7.42
2023-04-20T19:02:22.002Z,7.62
2023-04-20T19:07:25.618Z,7.71
2023-04-20T19:12:30.668Z,7.78
2023-04-20T19:17:34.018Z,7.76
2023-04-20T19:22:39.953Z,7.61
2023-04-20T19:27:44.514Z,7.64
2023-04-20T19:32:49.455Z,7.75
2023-04-20T19:38:00.720Z,7.71
2023-04-20T19:43:14.263Z,7.79
2023-04-20T19:48:17.954Z,7.91
2023-04-20T19:53:21.513Z,7.71
2023-04-20T19:58:27.357Z,7.76
2023-04-20T20:03:32.597Z,8.06
2023-04-20T20:08:36.532Z,7.94
2023-04-20T20:13:41.812Z,8.02
2023-04-20T20:18:45.699Z,8.13
2023-04-20T20:23:49.172Z,7.98
2023-04-20T20:28:54.400Z,7.83
2023-04-20T20:33:57.588Z,8.06
2023-04-20T20:39:01.094Z,7.88
2023-04-20T20:44:06.491Z,7.76
2023-04-20T20:49:10.557Z,7.99
2023-04-20T20:54:13.988Z,7.67
2023-04-20T20:59:19.217Z,8.10
2023-04-20T21:04:22.759Z,8.11
2023-04-20T21:09:26.754Z,8.07
2023-04-20T21:14:31.443Z,8.12
2023-04-20T21:19:34.665Z,8.08
2023-04-20T21:24:38.176Z,8.22
2023-04-20T21:29:42.780Z,8.30
2023-04-20T21:34:46.030Z,8.45
2023-04-20T21:39:50.614Z,8.32
2023-04-20T21:44:55.269Z,8.44
2023-04-20T21:49:58.590Z,8.58
2023-04-20T21:55:02.237Z,8.55
2023-04-20T22:00:10.393Z,8.29
2023-04-20T22:05:21.904Z,8.39
2023-04-20T22:10:25.389Z,8.30
2023-04-20T22:15:30.352Z,8.50
2023-04-20T22:20:33.498Z,8.35
2023-04-20T22:25:36.836Z,8.44
2023-04-20T22:30:42.561Z,8.52
2023-04-20T22:35:45.923Z,8.61
2023-04-20T22:40:49.135Z,8.59
2023-04-20T22:45:53.879Z,8.17
2023-04-20T22:51:00.771Z,8.34
2023-04-20T22:56:05.945Z,8.44
2023-04-20T23:01:10.801Z,8.52
2023-04-20T23:06:18.733Z,8.30
2023-04-20T23:11:22.358Z,8.52
2023-04-20T23:16:28.148Z,8.38
2023-04-20T23:21:31.360Z,8.36
2023-04-20T23:26:34.604Z,8.51
2023-04-20T23:31:39.285Z,8.37
2023-04-20T23:36:42.423Z,8.57
2023-04-20T23:41:45.615Z,8.62
2023-04-20T23:46:50.595Z,8.20
2023-04-20T23:51:53.710Z,8.12
2023-04-20T23:56:57.068Z,8.36
